JST520 YMML-YSSY
Flight info
| Callsign | JST520 |
|---|---|
| Flight time | 1h 5m |
| Altitude | 37000 |
| Route | ML H129 DOSEL Y59 RIVET |
| Aircraft | A21N/M-SDE3FGHIRWY/LB1 |
Departure
| Time | 2026-05-07 05:18 |
|---|---|
| Airport | Melbourne Airport (YMML) |
Arrival
| Time | 2026-05-07 06:23 |
|---|---|
| Airport | Sydney Kingsford Smith International Airport (YSSY) |
| Time | Latitude | Longitude | Altitude | Speed | Heading |
|---|---|---|---|---|---|
| 2026-05-07 04:53 | -37.67527 | 144.84741 | 442 ft | 0 kts | 171° |
| 2026-05-07 05:06 | -37.67525 | 144.84741 | 442 ft | 1 kts | 172° |
| 2026-05-07 05:07 | -37.67511 | 144.84738 | 442 ft | 2 kts | 171° |
| 2026-05-07 05:07 | -37.67496 | 144.84735 | 442 ft | 2 kts | 174° |
| 2026-05-07 05:07 | -37.67481 | 144.84738 | 442 ft | 2 kts | 199° |
| 2026-05-07 05:07 | -37.67468 | 144.84746 | 442 ft | 2 kts | 217° |
| 2026-05-07 05:08 | -37.67457 | 144.84760 | 442 ft | 2 kts | 236° |
| 2026-05-07 05:08 | -37.67451 | 144.84776 | 442 ft | 1 kts | 255° |
| 2026-05-07 05:08 | -37.67450 | 144.84784 | 442 ft | 1 kts | 263° |
| 2026-05-07 05:08 | -37.67449 | 144.84788 | 442 ft | 0 kts | 260° |
| 2026-05-07 05:11 | -37.67449 | 144.84787 | 442 ft | 0 kts | 260° |
| 2026-05-07 05:11 | -37.67450 | 144.84782 | 442 ft | 1 kts | 260° |
| 2026-05-07 05:11 | -37.67451 | 144.84769 | 442 ft | 1 kts | 260° |
| 2026-05-07 05:11 | -37.67455 | 144.84744 | 442 ft | 4 kts | 261° |
| 2026-05-07 05:12 | -37.67462 | 144.84685 | 442 ft | 8 kts | 261° |
| 2026-05-07 05:12 | -37.67472 | 144.84611 | 442 ft | 8 kts | 261° |
| 2026-05-07 05:12 | -37.67469 | 144.84531 | 442 ft | 9 kts | 279° |
| 2026-05-07 05:12 | -37.67472 | 144.84445 | 442 ft | 10 kts | 263° |
| 2026-05-07 05:13 | -37.67474 | 144.84357 | 442 ft | 10 kts | 286° |
| 2026-05-07 05:13 | -37.67419 | 144.84309 | 442 ft | 10 kts | 349° |
| 2026-05-07 05:13 | -37.67345 | 144.84293 | 442 ft | 11 kts | 349° |
| 2026-05-07 05:13 | -37.67266 | 144.84279 | 441 ft | 11 kts | 351° |
| 2026-05-07 05:14 | -37.67183 | 144.84262 | 442 ft | 12 kts | 351° |
| 2026-05-07 05:14 | -37.67096 | 144.84248 | 441 ft | 12 kts | 352° |
| 2026-05-07 05:14 | -37.67008 | 144.84232 | 441 ft | 12 kts | 351° |
| 2026-05-07 05:14 | -37.66919 | 144.84213 | 441 ft | 13 kts | 350° |
| 2026-05-07 05:15 | -37.66830 | 144.84193 | 441 ft | 13 kts | 351° |
| 2026-05-07 05:15 | -37.66740 | 144.84175 | 441 ft | 13 kts | 351° |
| 2026-05-07 05:15 | -37.66649 | 144.84158 | 441 ft | 13 kts | 353° |
| 2026-05-07 05:15 | -37.66564 | 144.84189 | 441 ft | 13 kts | 45° |
| 2026-05-07 05:16 | -37.66528 | 144.84300 | 441 ft | 14 kts | 82° |
| 2026-05-07 05:16 | -37.66513 | 144.84428 | 441 ft | 15 kts | 81° |
| 2026-05-07 05:16 | -37.66496 | 144.84564 | 441 ft | 15 kts | 81° |
| 2026-05-07 05:16 | -37.66478 | 144.84700 | 441 ft | 15 kts | 70° |
| 2026-05-07 05:17 | -37.66393 | 144.84776 | 441 ft | 16 kts | 8° |
| 2026-05-07 05:17 | -37.66283 | 144.84792 | 441 ft | 16 kts | 4° |
| 2026-05-07 05:17 | -37.66219 | 144.84689 | 441 ft | 21 kts | 274° |
| 2026-05-07 05:17 | -37.66197 | 144.84190 | 442 ft | 95 kts | 273° |
| 2026-05-07 05:18 | -37.66135 | 144.83069 | 450 ft | 158 kts | 271° |
| 2026-05-07 05:18 | -37.65956 | 144.81587 | 914 ft | 177 kts | 271° |
| 2026-05-07 05:18 | -37.65870 | 144.80060 | 1669 ft | 182 kts | 268° |
| 2026-05-07 05:18 | -37.65813 | 144.78476 | 2520 ft | 185 kts | 266° |
| 2026-05-07 05:19 | -37.65764 | 144.76852 | 3245 ft | 190 kts | 266° |
| 2026-05-07 05:19 | -37.65714 | 144.75154 | 3877 ft | 203 kts | 268° |
| 2026-05-07 05:19 | -37.65610 | 144.73288 | 4378 ft | 224 kts | 269° |
| 2026-05-07 05:19 | -37.65477 | 144.71265 | 4956 ft | 242 kts | 270° |
| 2026-05-07 05:20 | -37.65336 | 144.69115 | 5728 ft | 251 kts | 270° |
| 2026-05-07 05:20 | -37.64926 | 144.66960 | 6609 ft | 264 kts | 291° |
| 2026-05-07 05:20 | -37.63697 | 144.65189 | 7471 ft | 282 kts | 319° |
| 2026-05-07 05:20 | -37.61866 | 144.64186 | 8255 ft | 298 kts | 338° |
| 2026-05-07 05:21 | -37.59856 | 144.63475 | 8978 ft | 307 kts | 339° |
| 2026-05-07 05:21 | -37.55577 | 144.62247 | 10333 ft | 331 kts | 359° |
| 2026-05-07 05:21 | -37.53293 | 144.62972 | 10765 ft | 349 kts | 30° |
| 2026-05-07 05:22 | -37.51438 | 144.64990 | 11353 ft | 350 kts | 57° |
| 2026-05-07 05:22 | -37.50056 | 144.67494 | 12084 ft | 352 kts | 64° |
| 2026-05-07 05:22 | -37.48720 | 144.70079 | 12798 ft | 358 kts | 63° |
| 2026-05-07 05:22 | -37.47340 | 144.72737 | 13497 ft | 363 kts | 65° |
| 2026-05-07 05:23 | -37.46073 | 144.75439 | 14201 ft | 366 kts | 68° |
| 2026-05-07 05:23 | -37.44803 | 144.78244 | 14897 ft | 371 kts | 69° |
| 2026-05-07 05:23 | -37.43519 | 144.81085 | 15604 ft | 375 kts | 68° |
| 2026-05-07 05:23 | -37.42204 | 144.83980 | 16304 ft | 379 kts | 68° |
| 2026-05-07 05:24 | -37.40886 | 144.86865 | 16984 ft | 383 kts | 68° |
| 2026-05-07 05:24 | -37.39544 | 144.89796 | 17584 ft | 389 kts | 68° |
| 2026-05-07 05:24 | -37.38180 | 144.92763 | 18206 ft | 394 kts | 68° |
| 2026-05-07 05:24 | -37.36815 | 144.95734 | 18814 ft | 398 kts | 68° |
| 2026-05-07 05:25 | -37.35417 | 144.98769 | 19477 ft | 402 kts | 68° |
| 2026-05-07 05:25 | -37.34018 | 145.01804 | 20102 ft | 405 kts | 68° |
| 2026-05-07 05:25 | -37.32617 | 145.04839 | 20690 ft | 409 kts | 68° |
| 2026-05-07 05:25 | -37.31169 | 145.07973 | 21260 ft | 413 kts | 68° |
| 2026-05-07 05:26 | -37.29720 | 145.11113 | 21805 ft | 417 kts | 67° |
| 2026-05-07 05:26 | -37.28258 | 145.14267 | 22383 ft | 420 kts | 68° |
| 2026-05-07 05:26 | -37.26788 | 145.17442 | 22951 ft | 424 kts | 67° |
| 2026-05-07 05:26 | -37.25304 | 145.20638 | 23470 ft | 428 kts | 68° |
| 2026-05-07 05:27 | -37.23803 | 145.23863 | 24024 ft | 430 kts | 67° |
| 2026-05-07 05:27 | -37.22292 | 145.27112 | 24534 ft | 434 kts | 68° |
| 2026-05-07 05:27 | -37.20758 | 145.30406 | 25061 ft | 436 kts | 68° |
| 2026-05-07 05:27 | -37.19235 | 145.33678 | 25598 ft | 438 kts | 67° |
| 2026-05-07 05:28 | -37.17699 | 145.36971 | 26099 ft | 441 kts | 68° |
| 2026-05-07 05:28 | -37.16055 | 145.40295 | 26553 ft | 448 kts | 64° |
| 2026-05-07 05:28 | -37.14285 | 145.43480 | 27018 ft | 453 kts | 62° |
| 2026-05-07 05:28 | -37.12427 | 145.46713 | 27502 ft | 456 kts | 62° |
| 2026-05-07 05:29 | -37.10561 | 145.49948 | 27970 ft | 458 kts | 62° |
| 2026-05-07 05:29 | -37.08702 | 145.53169 | 28409 ft | 460 kts | 62° |
| 2026-05-07 05:29 | -37.06811 | 145.56453 | 28810 ft | 463 kts | 61° |
| 2026-05-07 05:29 | -37.04912 | 145.59746 | 29213 ft | 466 kts | 62° |
| 2026-05-07 05:30 | -37.03035 | 145.62996 | 29665 ft | 467 kts | 62° |
| 2026-05-07 05:30 | -37.01141 | 145.66281 | 30072 ft | 469 kts | 61° |
| 2026-05-07 05:30 | -36.99207 | 145.69635 | 30422 ft | 472 kts | 61° |
| 2026-05-07 05:30 | -36.97280 | 145.72966 | 30795 ft | 474 kts | 61° |
| 2026-05-07 05:31 | -36.95358 | 145.76286 | 31182 ft | 476 kts | 60° |
| 2026-05-07 05:31 | -36.93402 | 145.79669 | 31501 ft | 479 kts | 61° |
| 2026-05-07 05:31 | -36.91442 | 145.83052 | 31818 ft | 481 kts | 60° |
| 2026-05-07 05:31 | -36.89489 | 145.86424 | 32140 ft | 483 kts | 60° |
| 2026-05-07 05:32 | -36.87518 | 145.89818 | 32407 ft | 485 kts | 60° |
| 2026-05-07 05:32 | -36.85519 | 145.93257 | 32697 ft | 487 kts | 61° |
| 2026-05-07 05:32 | -36.83530 | 145.96672 | 32953 ft | 489 kts | 61° |
| 2026-05-07 05:32 | -36.81527 | 146.00117 | 33175 ft | 491 kts | 60° |
| 2026-05-07 05:33 | -36.79532 | 146.03542 | 33375 ft | 494 kts | 60° |
| 2026-05-07 05:33 | -36.77489 | 146.07040 | 33650 ft | 494 kts | 60° |
| 2026-05-07 05:33 | -36.75449 | 146.10530 | 34004 ft | 493 kts | 61° |
| 2026-05-07 05:33 | -36.73443 | 146.13963 | 34325 ft | 492 kts | 60° |
| 2026-05-07 05:34 | -36.71433 | 146.17397 | 34594 ft | 491 kts | 60° |
| 2026-05-07 05:34 | -36.69411 | 146.20844 | 34778 ft | 491 kts | 60° |
| 2026-05-07 05:34 | -36.67405 | 146.24272 | 35010 ft | 491 kts | 60° |
| 2026-05-07 05:34 | -36.65402 | 146.27681 | 35228 ft | 490 kts | 60° |
| 2026-05-07 05:35 | -36.63387 | 146.31108 | 35434 ft | 489 kts | 60° |
| 2026-05-07 05:35 | -36.61407 | 146.34480 | 35603 ft | 489 kts | 59° |
| 2026-05-07 05:35 | -36.59392 | 146.37903 | 35772 ft | 489 kts | 59° |
| 2026-05-07 05:35 | -36.57372 | 146.41334 | 35873 ft | 489 kts | 59° |
| 2026-05-07 05:36 | -36.55383 | 146.44707 | 35990 ft | 490 kts | 59° |
| 2026-05-07 05:36 | -36.53361 | 146.48129 | 36163 ft | 490 kts | 58° |
| 2026-05-07 05:36 | -36.51362 | 146.51508 | 36330 ft | 490 kts | 58° |
| 2026-05-07 05:36 | -36.49330 | 146.54942 | 36484 ft | 491 kts | 58° |
| 2026-05-07 05:37 | -36.47292 | 146.58382 | 36584 ft | 493 kts | 58° |
| 2026-05-07 05:37 | -36.45274 | 146.61789 | 36752 ft | 493 kts | 57° |
| 2026-05-07 05:37 | -36.43247 | 146.65201 | 36897 ft | 493 kts | 57° |
| 2026-05-07 05:37 | -36.41203 | 146.68642 | 37012 ft | 494 kts | 57° |
| 2026-05-07 05:38 | -36.39139 | 146.72107 | 37117 ft | 496 kts | 57° |
| 2026-05-07 05:38 | -36.35043 | 146.78986 | 37088 ft | 497 kts | 57° |
| 2026-05-07 05:39 | -36.30955 | 146.85828 | 37108 ft | 498 kts | 56° |
| 2026-05-07 05:39 | -36.26821 | 146.92740 | 37140 ft | 498 kts | 56° |
| 2026-05-07 05:40 | -36.22681 | 146.99643 | 37118 ft | 498 kts | 56° |
| 2026-05-07 05:40 | -36.18561 | 147.06508 | 37131 ft | 498 kts | 56° |
| 2026-05-07 05:41 | -36.14422 | 147.13388 | 37115 ft | 498 kts | 55° |
| 2026-05-07 05:41 | -36.10302 | 147.20216 | 37103 ft | 499 kts | 56° |
| 2026-05-07 05:42 | -36.06157 | 147.27086 | 37107 ft | 499 kts | 55° |
| 2026-05-07 05:42 | -36.02003 | 147.33943 | 37112 ft | 499 kts | 55° |
| 2026-05-07 05:43 | -35.97859 | 147.40773 | 37112 ft | 499 kts | 55° |
| 2026-05-07 05:43 | -35.93691 | 147.47635 | 37105 ft | 499 kts | 55° |
| 2026-05-07 05:44 | -35.89543 | 147.54442 | 37099 ft | 499 kts | 54° |
| 2026-05-07 05:44 | -35.85421 | 147.61191 | 37108 ft | 499 kts | 55° |
| 2026-05-07 05:45 | -35.81236 | 147.68042 | 37110 ft | 500 kts | 54° |
| 2026-05-07 05:45 | -35.77037 | 147.74905 | 37101 ft | 500 kts | 53° |
| 2026-05-07 05:46 | -35.72842 | 147.81734 | 37076 ft | 500 kts | 54° |
| 2026-05-07 05:46 | -35.68653 | 147.88544 | 37081 ft | 500 kts | 53° |
| 2026-05-07 05:47 | -35.64451 | 147.95363 | 37107 ft | 501 kts | 53° |
| 2026-05-07 05:47 | -35.60240 | 148.02182 | 37085 ft | 501 kts | 53° |
| 2026-05-07 05:48 | -35.56036 | 148.08978 | 37117 ft | 501 kts | 53° |
| 2026-05-07 05:48 | -35.51820 | 148.15778 | 37076 ft | 500 kts | 52° |
| 2026-05-07 05:49 | -35.47601 | 148.22572 | 37091 ft | 501 kts | 52° |
| 2026-05-07 05:49 | -35.43367 | 148.29372 | 37075 ft | 502 kts | 52° |
| 2026-05-07 05:50 | -35.39148 | 148.36136 | 37054 ft | 501 kts | 52° |
| 2026-05-07 05:50 | -35.34936 | 148.42879 | 37047 ft | 502 kts | 52° |
| 2026-05-07 05:51 | -35.30675 | 148.49687 | 37034 ft | 502 kts | 51° |
| 2026-05-07 05:51 | -35.26450 | 148.56430 | 37026 ft | 502 kts | 52° |
| 2026-05-07 05:52 | -35.22213 | 148.63174 | 37030 ft | 502 kts | 52° |
| 2026-05-07 05:52 | -35.17921 | 148.69991 | 37028 ft | 502 kts | 51° |
| 2026-05-07 05:53 | -35.13675 | 148.76709 | 37027 ft | 502 kts | 51° |
| 2026-05-07 05:53 | -35.10169 | 148.82268 | 37035 ft | 502 kts | 51° |
| 2026-05-07 05:53 | -35.10104 | 148.82370 | 38849 ft | 502 kts | 52° |
| 2026-05-07 05:54 | -35.07928 | 148.85724 | 38316 ft | 504 kts | 56° |
| 2026-05-07 05:54 | -35.05794 | 148.89087 | 37492 ft | 502 kts | 57° |
| 2026-05-07 05:54 | -35.03699 | 148.92410 | 37241 ft | 491 kts | 57° |
| 2026-05-07 05:55 | -34.99554 | 148.98991 | 36818 ft | 490 kts | 56° |
| 2026-05-07 05:55 | -34.95429 | 149.05534 | 36377 ft | 488 kts | 53° |
| 2026-05-07 05:55 | -34.93344 | 149.08821 | 35440 ft | 496 kts | 53° |
| 2026-05-07 05:56 | -34.91192 | 149.12172 | 34483 ft | 508 kts | 53° |
| 2026-05-07 05:56 | -34.89004 | 149.15561 | 33383 ft | 523 kts | 54° |
| 2026-05-07 05:56 | -34.86741 | 149.19075 | 32426 ft | 532 kts | 55° |
| 2026-05-07 05:56 | -34.84462 | 149.22626 | 31906 ft | 529 kts | 57° |
| 2026-05-07 05:57 | -34.82214 | 149.26143 | 31496 ft | 522 kts | 56° |
| 2026-05-07 05:57 | -34.80008 | 149.29604 | 31025 ft | 518 kts | 57° |
| 2026-05-07 05:57 | -34.77803 | 149.33043 | 30515 ft | 515 kts | 57° |
| 2026-05-07 05:57 | -34.75647 | 149.36421 | 30058 ft | 510 kts | 60° |
| 2026-05-07 05:58 | -34.73636 | 149.39972 | 29540 ft | 500 kts | 65° |
| 2026-05-07 05:58 | -34.71906 | 149.43594 | 28933 ft | 494 kts | 69° |
| 2026-05-07 05:58 | -34.70309 | 149.47263 | 28382 ft | 490 kts | 70° |
| 2026-05-07 05:58 | -34.68753 | 149.50894 | 27824 ft | 487 kts | 70° |
| 2026-05-07 05:59 | -34.67188 | 149.54541 | 27296 ft | 484 kts | 70° |
| 2026-05-07 05:59 | -34.65632 | 149.58125 | 26823 ft | 480 kts | 71° |
| 2026-05-07 05:59 | -34.64073 | 149.61703 | 26331 ft | 475 kts | 70° |
| 2026-05-07 05:59 | -34.62534 | 149.65225 | 25879 ft | 471 kts | 70° |
| 2026-05-07 06:00 | -34.61008 | 149.68710 | 25320 ft | 470 kts | 70° |
| 2026-05-07 06:00 | -34.59470 | 149.72215 | 24814 ft | 467 kts | 71° |
| 2026-05-07 06:00 | -34.57959 | 149.75648 | 24338 ft | 464 kts | 72° |
| 2026-05-07 06:00 | -34.56446 | 149.79089 | 23891 ft | 460 kts | 72° |
| 2026-05-07 06:01 | -34.54957 | 149.82477 | 23409 ft | 457 kts | 72° |
| 2026-05-07 06:01 | -34.53481 | 149.85844 | 23023 ft | 453 kts | 71° |
| 2026-05-07 06:01 | -34.52013 | 149.89185 | 22647 ft | 448 kts | 70° |
| 2026-05-07 06:01 | -34.50543 | 149.92522 | 22234 ft | 445 kts | 70° |
| 2026-05-07 06:02 | -34.49107 | 149.95783 | 21868 ft | 441 kts | 69° |
| 2026-05-07 06:02 | -34.47664 | 149.99054 | 21492 ft | 437 kts | 68° |
| 2026-05-07 06:02 | -34.46238 | 150.02280 | 21110 ft | 433 kts | 68° |
| 2026-05-07 06:02 | -34.44819 | 150.05481 | 20715 ft | 429 kts | 67° |
| 2026-05-07 06:03 | -34.43418 | 150.08637 | 20332 ft | 424 kts | 66° |
| 2026-05-07 06:03 | -34.42034 | 150.11758 | 19905 ft | 421 kts | 65° |
| 2026-05-07 06:03 | -34.40658 | 150.14856 | 19515 ft | 417 kts | 65° |
| 2026-05-07 06:03 | -34.39296 | 150.17915 | 19152 ft | 412 kts | 64° |
| 2026-05-07 06:04 | -34.37952 | 150.20926 | 18749 ft | 407 kts | 64° |
| 2026-05-07 06:04 | -34.36604 | 150.23946 | 18340 ft | 403 kts | 64° |
| 2026-05-07 06:04 | -34.35276 | 150.26916 | 17931 ft | 399 kts | 64° |
| 2026-05-07 06:04 | -34.33970 | 150.29839 | 17486 ft | 395 kts | 64° |
| 2026-05-07 06:05 | -34.32661 | 150.32762 | 17045 ft | 392 kts | 64° |
| 2026-05-07 06:05 | -34.31387 | 150.35611 | 16630 ft | 386 kts | 64° |
| 2026-05-07 06:05 | -34.30112 | 150.38457 | 15968 ft | 383 kts | 64° |
| 2026-05-07 06:05 | -34.28851 | 150.41277 | 15231 ft | 381 kts | 64° |
| 2026-05-07 06:06 | -34.27592 | 150.44089 | 14556 ft | 376 kts | 64° |
| 2026-05-07 06:06 | -34.26366 | 150.46828 | 13930 ft | 371 kts | 64° |
| 2026-05-07 06:06 | -34.25144 | 150.49562 | 13303 ft | 367 kts | 64° |
| 2026-05-07 06:06 | -34.23939 | 150.52255 | 12801 ft | 363 kts | 64° |
| 2026-05-07 06:07 | -34.22744 | 150.54927 | 12353 ft | 361 kts | 64° |
| 2026-05-07 06:07 | -34.21551 | 150.57594 | 11927 ft | 359 kts | 64° |
| 2026-05-07 06:07 | -34.20368 | 150.60228 | 11519 ft | 356 kts | 64° |
| 2026-05-07 06:07 | -34.19186 | 150.62862 | 11117 ft | 353 kts | 64° |
| 2026-05-07 06:08 | -34.18029 | 150.65439 | 10718 ft | 350 kts | 63° |
| 2026-05-07 06:08 | -34.16869 | 150.68016 | 10397 ft | 344 kts | 63° |
| 2026-05-07 06:08 | -34.15734 | 150.70535 | 10142 ft | 331 kts | 64° |
| 2026-05-07 06:08 | -34.14671 | 150.72893 | 9983 ft | 314 kts | 64° |
| 2026-05-07 06:09 | -34.13642 | 150.75179 | 9635 ft | 311 kts | 64° |
| 2026-05-07 06:09 | -34.12609 | 150.77470 | 9271 ft | 309 kts | 63° |
| 2026-05-07 06:09 | -34.11592 | 150.79732 | 8921 ft | 307 kts | 64° |
| 2026-05-07 06:09 | -34.10613 | 150.82008 | 8603 ft | 304 kts | 69° |
| 2026-05-07 06:10 | -34.09826 | 150.84374 | 8381 ft | 304 kts | 72° |
| 2026-05-07 06:10 | -34.09098 | 150.86749 | 8147 ft | 302 kts | 73° |
| 2026-05-07 06:10 | -34.08384 | 150.89110 | 7956 ft | 301 kts | 72° |
| 2026-05-07 06:10 | -34.07670 | 150.91467 | 7766 ft | 299 kts | 73° |
| 2026-05-07 06:11 | -34.06956 | 150.93822 | 7575 ft | 298 kts | 72° |
| 2026-05-07 06:11 | -34.06267 | 150.96181 | 7402 ft | 297 kts | 75° |
| 2026-05-07 06:11 | -34.05692 | 150.98553 | 7220 ft | 296 kts | 77° |
| 2026-05-07 06:11 | -34.05154 | 151.00934 | 7029 ft | 295 kts | 78° |
| 2026-05-07 06:12 | -34.04623 | 151.03323 | 6858 ft | 294 kts | 78° |
| 2026-05-07 06:12 | -34.04089 | 151.05721 | 6677 ft | 294 kts | 78° |
| 2026-05-07 06:12 | -34.03567 | 151.08078 | 6501 ft | 292 kts | 78° |
| 2026-05-07 06:12 | -34.03041 | 151.10443 | 6304 ft | 292 kts | 78° |
| 2026-05-07 06:13 | -34.02514 | 151.12811 | 6122 ft | 292 kts | 78° |
| 2026-05-07 06:13 | -34.01986 | 151.15178 | 5980 ft | 293 kts | 78° |
| 2026-05-07 06:13 | -34.01465 | 151.17534 | 5955 ft | 294 kts | 78° |
| 2026-05-07 06:13 | -34.00935 | 151.19930 | 5757 ft | 293 kts | 78° |
| 2026-05-07 06:14 | -34.00410 | 151.22295 | 5559 ft | 293 kts | 78° |
| 2026-05-07 06:14 | -33.99887 | 151.24663 | 5342 ft | 293 kts | 78° |
| 2026-05-07 06:14 | -33.99371 | 151.27011 | 5082 ft | 291 kts | 78° |
| 2026-05-07 06:14 | -33.98855 | 151.29373 | 4832 ft | 290 kts | 78° |
| 2026-05-07 06:15 | -33.98348 | 151.31708 | 4602 ft | 290 kts | 78° |
| 2026-05-07 06:15 | -33.97837 | 151.34080 | 4435 ft | 290 kts | 78° |
| 2026-05-07 06:15 | -33.97337 | 151.36400 | 4264 ft | 283 kts | 78° |
| 2026-05-07 06:15 | -33.96850 | 151.38647 | 4090 ft | 276 kts | 78° |
| 2026-05-07 06:16 | -33.96373 | 151.40857 | 3947 ft | 266 kts | 78° |
| 2026-05-07 06:16 | -33.95826 | 151.42946 | 3800 ft | 259 kts | 64° |
| 2026-05-07 06:16 | -33.94685 | 151.44540 | 3656 ft | 249 kts | 30° |
| 2026-05-07 06:16 | -33.93131 | 151.45200 | 3519 ft | 230 kts | 356° |
| 2026-05-07 06:17 | -33.91582 | 151.45084 | 3401 ft | 215 kts | 346° |
| 2026-05-07 06:17 | -33.90140 | 151.44781 | 3252 ft | 202 kts | 332° |
| 2026-05-07 06:17 | -33.89080 | 151.43855 | 3093 ft | 179 kts | 292° |
| 2026-05-07 06:17 | -33.88730 | 151.42474 | 2996 ft | 169 kts | 269° |
| 2026-05-07 06:18 | -33.88726 | 151.41090 | 2970 ft | 166 kts | 259° |
| 2026-05-07 06:18 | -33.88907 | 151.39717 | 2963 ft | 165 kts | 253° |
| 2026-05-07 06:18 | -33.89187 | 151.38382 | 2956 ft | 164 kts | 251° |
| 2026-05-07 06:18 | -33.89480 | 151.37118 | 3000 ft | 151 kts | 251° |
| 2026-05-07 06:19 | -33.89768 | 151.35901 | 2880 ft | 150 kts | 251° |
| 2026-05-07 06:19 | -33.90051 | 151.34708 | 2676 ft | 148 kts | 251° |
| 2026-05-07 06:19 | -33.90332 | 151.33522 | 2472 ft | 147 kts | 251° |
| 2026-05-07 06:19 | -33.90610 | 151.32340 | 2274 ft | 146 kts | 251° |
| 2026-05-07 06:20 | -33.90886 | 151.31161 | 2078 ft | 146 kts | 251° |
| 2026-05-07 06:20 | -33.91150 | 151.30032 | 1902 ft | 133 kts | 251° |
| 2026-05-07 06:20 | -33.91390 | 151.29005 | 1714 ft | 124 kts | 250° |
| 2026-05-07 06:20 | -33.91624 | 151.28014 | 1547 ft | 121 kts | 250° |
| 2026-05-07 06:21 | -33.91853 | 151.27043 | 1394 ft | 120 kts | 251° |
| 2026-05-07 06:21 | -33.92079 | 151.26083 | 1250 ft | 120 kts | 251° |
| 2026-05-07 06:21 | -33.92308 | 151.25111 | 1087 ft | 120 kts | 251° |
| 2026-05-07 06:21 | -33.92523 | 151.24149 | 952 ft | 119 kts | 253° |
| 2026-05-07 06:22 | -33.92753 | 151.23186 | 790 ft | 119 kts | 251° |
| 2026-05-07 06:22 | -33.93207 | 151.21266 | 480 ft | 118 kts | 252° |
| 2026-05-07 06:22 | -33.93440 | 151.20322 | 311 ft | 118 kts | 253° |
| 2026-05-07 06:23 | -33.93665 | 151.19368 | 173 ft | 117 kts | 253° |
| 2026-05-07 06:23 | -33.93885 | 151.18434 | 48 ft | 110 kts | 254° |
| 2026-05-07 06:23 | -33.94068 | 151.17659 | 28 ft | 78 kts | 255° |
| 2026-05-07 06:23 | -33.94171 | 151.17219 | 28 ft | 33 kts | 254° |
| 2026-05-07 06:24 | -33.94228 | 151.16977 | 28 ft | 21 kts | 255° |
| 2026-05-07 06:24 | -33.94215 | 151.16870 | 28 ft | 8 kts | 320° |
| 2026-05-07 06:24 | -33.94190 | 151.16856 | 28 ft | 3 kts | 342° |
| 2026-05-07 06:24 | -33.94168 | 151.16849 | 28 ft | 3 kts | 344° |
| 2026-05-07 06:25 | -33.94144 | 151.16840 | 28 ft | 3 kts | 343° |
| 2026-05-07 06:25 | -33.94117 | 151.16830 | 28 ft | 3 kts | 343° |
| 2026-05-07 06:25 | -33.94091 | 151.16823 | 28 ft | 3 kts | 347° |
| 2026-05-07 06:25 | -33.94062 | 151.16827 | 28 ft | 5 kts | 32° |
| 2026-05-07 06:26 | -33.94045 | 151.16876 | 28 ft | 7 kts | 78° |
| 2026-05-07 06:26 | -33.94033 | 151.16945 | 28 ft | 9 kts | 79° |
| 2026-05-07 06:26 | -33.94019 | 151.17027 | 28 ft | 11 kts | 75° |
| 2026-05-07 06:26 | -33.93995 | 151.17122 | 28 ft | 12 kts | 73° |
| 2026-05-07 06:27 | -33.93969 | 151.17229 | 28 ft | 13 kts | 74° |
| 2026-05-07 06:27 | -33.93942 | 151.17348 | 28 ft | 15 kts | 75° |
| 2026-05-07 06:27 | -33.93914 | 151.17473 | 28 ft | 15 kts | 74° |
| 2026-05-07 06:27 | -33.93869 | 151.17592 | 28 ft | 15 kts | 29° |
| 2026-05-07 06:28 | -33.93767 | 151.17575 | 28 ft | 14 kts | 349° |
| 2026-05-07 06:28 | -33.93675 | 151.17551 | 28 ft | 12 kts | 348° |
| 2026-05-07 06:28 | -33.93592 | 151.17529 | 28 ft | 11 kts | 348° |
| 2026-05-07 06:28 | -33.93518 | 151.17514 | 28 ft | 10 kts | 351° |
| 2026-05-07 06:29 | -33.93462 | 151.17549 | 28 ft | 10 kts | 75° |
| 2026-05-07 06:29 | -33.93499 | 151.17612 | 28 ft | 6 kts | 123° |
| 2026-05-07 06:29 | -33.93510 | 151.17656 | 28 ft | 5 kts | 99° |
| 2026-05-07 06:29 | -33.93515 | 151.17693 | 28 ft | 0 kts | 100° |